Time;durP1;ratioP1;P1;durP2;ratioP2;P2;SDS_P1;SDS_P2;PMS_P1;PMS_P2;Temp;Humidity;BMP_temperature;BMP_pressure;BME280_temperature;BME280_humidity;BME280_pressure;Samples;Min_cycle;Max_cycle;Signal;HPM_P1;HPM_P2
2023/12/21 00:01:23;;;;;;;60.42;6.15;;;;;;;;;;6334196;22;20068;-86
2023/12/21 00:03:49;;;;;;;62.00;5.72;;;;;;;;;;6333839;22;20042;-86
2023/12/21 00:06:16;;;;;;;42.83;5.60;;;;;;;;;;6334332;22;20015;-85
2023/12/21 00:08:42;;;;;;;34.67;4.35;;;;;;;;;;6334108;22;20019;-86
2023/12/21 00:11:09;;;;;;;82.88;7.28;;;;;;;;;;6334297;22;20643;-85
2023/12/21 00:13:36;;;;;;;49.10;5.55;;;;;;;;;;6334323;22;20089;-86
2023/12/21 00:16:02;;;;;;;22.00;4.63;;;;;;;;;;6334258;22;20011;-85
2023/12/21 00:18:29;;;;;;;77.15;9.88;;;;;;;;;;6333717;22;20046;-85
2023/12/21 00:20:56;;;;;;;43.88;5.82;;;;;;;;;;6334107;22;20076;-85
2023/12/21 00:23:22;;;;;;;30.85;4.72;;;;;;;;;;6333801;22;20014;-86
2023/12/21 00:25:49;;;;;;;83.53;7.57;;;;;;;;;;6333775;22;20053;-85
2023/12/21 00:28:15;;;;;;;37.78;5.07;;;;;;;;;;6335222;22;20019;-85
2023/12/21 00:30:42;;;;;;;42.65;5.90;;;;;;;;;;6334349;22;20464;-85
2023/12/21 00:33:08;;;;;;;46.88;5.15;;;;;;;;;;6333734;22;20023;-85
2023/12/21 00:35:35;;;;;;;23.50;4.78;;;;;;;;;;6334334;22;20048;-85
2023/12/21 00:38:01;;;;;;;57.67;7.05;;;;;;;;;;6334532;22;20072;-85
2023/12/21 00:40:28;;;;;;;45.20;5.95;;;;;;;;;;6334812;22;20042;-85
2023/12/21 00:42:55;;;;;;;41.85;6.30;;;;;;;;;;6334203;22;20011;-85
2023/12/21 00:45:21;;;;;;;49.63;6.18;;;;;;;;;;6333874;22;20010;-85
2023/12/21 00:47:48;;;;;;;59.55;6.95;;;;;;;;;;6333864;22;20053;-85
2023/12/21 00:50:15;;;;;;;70.55;6.13;;;;;;;;;;6335084;22;20015;-85
2023/12/21 00:52:42;;;;;;;63.20;7.05;;;;;;;;;;6334345;22;20342;-86
2023/12/21 00:55:09;;;;;;;36.88;5.43;;;;;;;;;;6334826;22;20039;-85
2023/12/21 00:57:35;;;;;;;59.40;5.95;;;;;;;;;;6333430;22;20392;-86
2023/12/21 01:00:02;;;;;;;52.28;5.57;;;;;;;;;;6333435;22;20044;-85
2023/12/21 01:02:29;;;;;;;70.50;6.88;;;;;;;;;;6332126;22;20076;-85
2023/12/21 01:04:55;;;;;;;72.85;6.25;;;;;;;;;;6333313;22;20138;-86
2023/12/21 01:07:22;;;;;;;33.22;4.53;;;;;;;;;;6333857;22;20015;-85
2023/12/21 01:09:48;;;;;;;45.75;5.53;;;;;;;;;;6334352;22;20098;-85
2023/12/21 01:12:15;;;;;;;106.55;9.93;;;;;;;;;;6333825;22;20419;-86
2023/12/21 01:14:41;;;;;;;28.02;4.13;;;;;;;;;;6334228;22;20015;-86
2023/12/21 01:17:08;;;;;;;49.33;5.75;;;;;;;;;;6333257;22;20378;-85
2023/12/21 01:19:35;;;;;;;62.58;6.35;;;;;;;;;;6306252;22;21238;-85
2023/12/21 01:22:02;;;;;;;54.53;6.10;;;;;;;;;;6334029;22;20050;-85
2023/12/21 01:24:29;;;;;;;31.30;4.90;;;;;;;;;;6333731;22;20079;-85
2023/12/21 01:26:55;;;;;;;82.85;8.05;;;;;;;;;;6333331;22;21196;-85
2023/12/21 01:29:22;;;;;;;74.97;8.23;;;;;;;;;;6333537;22;20514;-85
2023/12/21 01:31:49;;;;;;;77.72;7.18;;;;;;;;;;6332480;22;21153;-86
2023/12/21 01:34:16;;;;;;;56.58;5.72;;;;;;;;;;6332979;22;20014;-86
2023/12/21 01:36:43;;;;;;;55.47;6.50;;;;;;;;;;6334861;22;20046;-85
2023/12/21 01:39:10;;;;;;;39.65;5.40;;;;;;;;;;6335930;22;20042;-85
2023/12/21 01:41:36;;;;;;;46.80;5.18;;;;;;;;;;6335574;22;20046;-85
2023/12/21 01:44:04;;;;;;;33.80;4.97;;;;;;;;;;6335537;22;20018;-85
2023/12/21 01:46:31;;;;;;;29.75;6.13;;;;;;;;;;6335761;22;20010;-85
2023/12/21 01:48:58;;;;;;;68.93;6.30;;;;;;;;;;6334816;22;20015;-85
2023/12/21 01:51:25;;;;;;;45.17;6.25;;;;;;;;;;6335455;22;20045;-85
2023/12/21 01:53:51;;;;;;;52.55;6.13;;;;;;;;;;6335344;22;20136;-85
2023/12/21 01:56:20;;;;;;;81.38;7.43;;;;;;;;;;6308148;22;20054;-85
2023/12/21 01:58:50;;;;;;;36.45;4.45;;;;;;;;;;6335372;22;20022;-86
2023/12/21 02:01:17;;;;;;;92.80;7.75;;;;;;;;;;6330547;22;20014;-81
2023/12/21 02:03:44;;;;;;;74.32;7.25;;;;;;;;;;6364026;22;20022;-81
2023/12/21 02:06:11;;;;;;;77.60;8.07;;;;;;;;;;6366199;22;20026;-80
2023/12/21 02:08:38;;;;;;;80.80;7.88;;;;;;;;;;6366469;22;20022;-81
2023/12/21 02:11:06;;;;;;;60.25;6.38;;;;;;;;;;6365459;22;20022;-81
2023/12/21 02:13:33;;;;;;;62.88;7.32;;;;;;;;;;6365357;22;20520;-80
2023/12/21 02:16:03;;;;;;;52.45;5.80;;;;;;;;;;6365768;22;20430;-81
2023/12/21 02:18:29;;;;;;;73.32;7.43;;;;;;;;;;6364153;22;20326;-81
2023/12/21 02:20:58;;;;;;;33.60;5.25;;;;;;;;;;6366017;22;20030;-81
2023/12/21 02:23:27;;;;;;;69.20;6.97;;;;;;;;;;6337951;22;20014;-81
2023/12/21 02:25:53;;;;;;;104.30;9.43;;;;;;;;;;6366091;22;20014;-80
2023/12/21 02:28:20;;;;;;;33.80;5.13;;;;;;;;;;6365888;22;20093;-81
2023/12/21 02:30:47;;;;;;;86.38;7.82;;;;;;;;;;6365138;22;20018;-81
2023/12/21 02:33:14;;;;;;;109.63;9.52;;;;;;;;;;6363970;22;20076;-80
2023/12/21 02:35:42;;;;;;;44.92;5.03;;;;;;;;;;6365325;22;20025;-81
2023/12/21 02:38:10;;;;;;;67.03;7.38;;;;;;;;;;6365272;22;20509;-80
2023/12/21 02:40:36;;;;;;;63.25;7.00;;;;;;;;;;6365092;22;20063;-81
2023/12/21 02:43:03;;;;;;;37.28;4.82;;;;;;;;;;6365535;22;20027;-81
2023/12/21 02:45:29;;;;;;;71.40;7.13;;;;;;;;;;6365088;22;20067;-81
2023/12/21 02:47:56;;;;;;;71.53;7.18;;;;;;;;;;6364278;22;20042;-81
2023/12/21 02:50:23;;;;;;;38.92;4.65;;;;;;;;;;6365403;22;20075;-81
2023/12/21 02:52:49;;;;;;;70.50;6.82;;;;;;;;;;6365446;22;20021;-81
2023/12/21 02:55:16;;;;;;;113.90;9.43;;;;;;;;;;6338109;22;20021;-80
2023/12/21 02:57:42;;;;;;;44.03;4.82;;;;;;;;;;6365673;22;20018;-81
2023/12/21 03:00:09;;;;;;;71.60;6.97;;;;;;;;;;6364850;22;20026;-81
2023/12/21 03:02:36;;;;;;;72.97;6.80;;;;;;;;;;6336625;22;20018;-81
2023/12/21 03:05:02;;;;;;;57.55;6.20;;;;;;;;;;6365433;22;20014;-81
2023/12/21 03:07:30;;;;;;;63.55;6.22;;;;;;;;;;6365121;22;20117;-81
2023/12/21 03:09:56;;;;;;;70.10;6.20;;;;;;;;;;6365474;22;20349;-81
2023/12/21 03:12:23;;;;;;;46.53;5.70;;;;;;;;;;6364785;22;20018;-81
2023/12/21 03:14:49;;;;;;;106.35;8.48;;;;;;;;;;6365318;22;20018;-80
2023/12/21 03:17:16;;;;;;;73.43;7.38;;;;;;;;;;6364796;22;20056;-81
2023/12/21 03:19:42;;;;;;;37.67;5.30;;;;;;;;;;6365460;22;20118;-81
2023/12/21 03:22:09;;;;;;;47.65;5.68;;;;;;;;;;6365691;22;20022;-80
2023/12/21 03:24:36;;;;;;;65.15;6.72;;;;;;;;;;6364813;22;20106;-80
2023/12/21 03:27:03;;;;;;;43.80;6.03;;;;;;;;;;6365725;22;20464;-81
2023/12/21 03:29:29;;;;;;;41.35;5.85;;;;;;;;;;6365250;22;20029;-81
2023/12/21 03:31:56;;;;;;;64.85;6.97;;;;;;;;;;6364046;22;20716;-81
2023/12/21 03:34:23;;;;;;;47.92;5.78;;;;;;;;;;6365623;22;20056;-81
2023/12/21 03:36:49;;;;;;;77.28;7.38;;;;;;;;;;6365311;22;20022;-80
2023/12/21 03:39:16;;;;;;;67.10;7.13;;;;;;;;;;6365663;22;20083;-81
2023/12/21 03:41:43;;;;;;;35.40;4.75;;;;;;;;;;6364625;22;20089;-81
2023/12/21 03:44:09;;;;;;;81.43;7.45;;;;;;;;;;6364858;22;20041;-81
2023/12/21 03:46:36;;;;;;;75.25;7.18;;;;;;;;;;6364319;22;20060;-81
2023/12/21 03:49:02;;;;;;;35.42;4.38;;;;;;;;;;6365537;22;20015;-81
2023/12/21 03:51:29;;;;;;;95.82;9.45;;;;;;;;;;6365087;22;20023;-81
2023/12/21 03:53:55;;;;;;;63.40;6.18;;;;;;;;;;6365848;22;20014;-81
2023/12/21 03:56:22;;;;;;;62.55;6.20;;;;;;;;;;6365134;22;20071;-81
2023/12/21 03:58:49;;;;;;;70.07;6.78;;;;;;;;;;6364242;22;20025;-81
2023/12/21 04:01:22;;;;;;;70.72;6.93;;;;;;;;;;6364914;22;20063;-81
2023/12/21 04:03:49;;;;;;;48.90;5.40;;;;;;;;;;6364645;22;20026;-81
2023/12/21 04:06:15;;;;;;;47.28;6.05;;;;;;;;;;6365490;22;20046;-81
2023/12/21 04:08:42;;;;;;;61.22;6.30;;;;;;;;;;6364741;22;20019;-81
2023/12/21 04:11:08;;;;;;;58.60;6.03;;;;;;;;;;6364766;22;20046;-81
2023/12/21 04:13:35;;;;;;;40.40;6.00;;;;;;;;;;6365262;22;20018;-80
2023/12/21 04:16:01;;;;;;;87.15;7.60;;;;;;;;;;6364704;22;20014;-81
2023/12/21 04:18:30;;;;;;;84.28;7.75;;;;;;;;;;6364485;22;20041;-81
2023/12/21 04:20:57;;;;;;;35.55;4.35;;;;;;;;;;6365724;22;20083;-81
2023/12/21 04:23:27;;;;;;;79.45;6.47;;;;;;;;;;6364133;22;20137;-80
2023/12/21 04:25:54;;;;;;;60.17;5.85;;;;;;;;;;6363838;22;20085;-81
2023/12/21 04:28:20;;;;;;;59.03;5.93;;;;;;;;;;6363499;22;20086;-81
2023/12/21 04:30:47;;;;;;;90.10;7.93;;;;;;;;;;6363739;22;20014;-80
2023/12/21 04:33:13;;;;;;;53.63;5.65;;;;;;;;;;6364216;22;20025;-81
2023/12/21 04:35:42;;;;;;;49.05;5.15;;;;;;;;;;6363776;22;20341;-80
2023/12/21 04:38:09;;;;;;;108.80;8.38;;;;;;;;;;6362271;22;20041;-81
2023/12/21 04:40:35;;;;;;;84.47;8.20;;;;;;;;;;6363813;22;20010;-81
2023/12/21 04:43:02;;;;;;;34.35;4.45;;;;;;;;;;6363520;22;20075;-81
2023/12/21 04:45:29;;;;;;;66.53;6.57;;;;;;;;;;6363844;22;20098;-81
2023/12/21 04:47:55;;;;;;;77.75;6.22;;;;;;;;;;6363549;22;20046;-81
2023/12/21 04:50:22;;;;;;;66.28;6.25;;;;;;;;;;6363826;22;20018;-81
2023/12/21 04:52:49;;;;;;;62.00;6.35;;;;;;;;;;6364032;22;20053;-81
2023/12/21 04:55:16;;;;;;;105.07;10.57;;;;;;;;;;6335615;22;20098;-81
2023/12/21 04:57:43;;;;;;;60.15;8.45;;;;;;;;;;6363814;22;20018;-81
2023/12/21 05:00:10;;;;;;;107.53;9.45;;;;;;;;;;6363292;22;20014;-81
2023/12/21 05:02:36;;;;;;;80.47;7.22;;;;;;;;;;6363327;22;20024;-81
2023/12/21 05:05:04;;;;;;;43.92;5.40;;;;;;;;;;6364738;22;20071;-80
2023/12/21 05:07:30;;;;;;;44.50;6.15;;;;;;;;;;6363793;22;20067;-81
2023/12/21 05:09:59;;;;;;;128.13;10.77;;;;;;;;;;6363747;22;20057;-81
2023/12/21 05:12:26;;;;;;;61.00;6.05;;;;;;;;;;6365273;22;20101;-81
2023/12/21 05:14:53;;;;;;;68.53;6.05;;;;;;;;;;6366285;22;20026;-81
2023/12/21 05:17:20;;;;;;;94.28;7.70;;;;;;;;;;6365213;22;20380;-81
2023/12/21 05:19:46;;;;;;;57.47;5.75;;;;;;;;;;6366257;22;20026;-82
2023/12/21 05:22:13;;;;;;;76.35;6.95;;;;;;;;;;6365705;22;20087;-81
2023/12/21 05:24:40;;;;;;;95.57;7.47;;;;;;;;;;6365895;22;20055;-80
2023/12/21 05:27:06;;;;;;;55.05;5.80;;;;;;;;;;6364734;22;20026;-81
2023/12/21 05:29:33;;;;;;;89.68;7.47;;;;;;;;;;6365477;22;20082;-81
2023/12/21 05:31:59;;;;;;;85.82;6.90;;;;;;;;;;6364970;22;20507;-81
2023/12/21 05:34:26;;;;;;;30.13;4.03;;;;;;;;;;6366569;22;20022;-81
2023/12/21 05:36:53;;;;;;;48.22;5.30;;;;;;;;;;6365550;22;20498;-81
2023/12/21 05:39:19;;;;;;;94.07;7.65;;;;;;;;;;6366259;22;20022;-81
2023/12/21 05:41:46;;;;;;;49.38;5.68;;;;;;;;;;6366466;22;20037;-81
2023/12/21 05:44:12;;;;;;;55.95;5.88;;;;;;;;;;6366370;22;20048;-81
2023/12/21 05:46:41;;;;;;;106.85;9.20;;;;;;;;;;6365310;22;20026;-81
2023/12/21 05:49:08;;;;;;;23.80;4.15;;;;;;;;;;6366322;22;20395;-80
2023/12/21 05:51:35;;;;;;;84.15;8.77;;;;;;;;;;6366037;22;20525;-81
2023/12/21 05:54:02;;;;;;;84.88;7.50;;;;;;;;;;6366099;22;20348;-81
2023/12/21 05:56:30;;;;;;;35.63;5.03;;;;;;;;;;6366324;22;20018;-81
2023/12/21 05:58:56;;;;;;;55.80;6.07;;;;;;;;;;6365851;22;20453;-82
2023/12/21 06:01:23;;;;;;;123.43;10.10;;;;;;;;;;6365914;22;20038;-81
2023/12/21 06:03:50;;;;;;;45.20;5.03;;;;;;;;;;6366277;22;20014;-80
2023/12/21 06:06:17;;;;;;;44.35;4.97;;;;;;;;;;6366222;22;20021;-81
2023/12/21 06:08:43;;;;;;;106.68;8.65;;;;;;;;;;6365505;22;20025;-81
2023/12/21 06:11:10;;;;;;;52.45;5.30;;;;;;;;;;6365707;22;20065;-81
2023/12/21 06:13:36;;;;;;;58.58;6.75;;;;;;;;;;6366698;22;20040;-81
2023/12/21 06:16:03;;;;;;;99.30;8.15;;;;;;;;;;6365991;22;20014;-81
2023/12/21 06:18:30;;;;;;;29.98;4.13;;;;;;;;;;6365596;22;20097;-81
2023/12/21 06:20:57;;;;;;;42.00;4.55;;;;;;;;;;6366201;22;20350;-81
2023/12/21 06:23:24;;;;;;;118.13;9.30;;;;;;;;;;6365036;22;20022;-81
2023/12/21 06:25:50;;;;;;;34.70;5.22;;;;;;;;;;6366228;22;20138;-81
2023/12/21 06:28:17;;;;;;;45.88;5.80;;;;;;;;;;6365669;22;20075;-81
2023/12/21 06:30:43;;;;;;;79.20;8.10;;;;;;;;;;6365331;22;20014;-81
2023/12/21 06:33:10;;;;;;;65.38;7.07;;;;;;;;;;6365347;22;20026;-81
2023/12/21 06:35:37;;;;;;;40.00;5.72;;;;;;;;;;6365812;22;20667;-81
2023/12/21 06:38:03;;;;;;;76.95;7.93;;;;;;;;;;6364885;22;20014;-81
2023/12/21 06:40:30;;;;;;;52.13;5.80;;;;;;;;;;6365295;22;20541;-82
2023/12/21 06:42:56;;;;;;;59.08;5.93;;;;;;;;;;6366087;22;20018;-81
2023/12/21 06:45:23;;;;;;;101.55;8.48;;;;;;;;;;6365578;22;20540;-81
2023/12/21 06:47:50;;;;;;;66.85;6.45;;;;;;;;;;6364914;22;20022;-81
2023/12/21 06:50:16;;;;;;;51.92;6.15;;;;;;;;;;6365913;22;20085;-81
2023/12/21 06:52:43;;;;;;;98.10;9.10;;;;;;;;;;6364924;22;20383;-81
2023/12/21 06:55:10;;;;;;;85.28;8.07;;;;;;;;;;6365518;22;20029;-82
2023/12/21 06:57:37;;;;;;;25.73;4.55;;;;;;;;;;6365068;22;20072;-82
2023/12/21 07:00:04;;;;;;;104.22;8.10;;;;;;;;;;6365347;22;20492;-81
2023/12/21 07:02:31;;;;;;;108.43;8.35;;;;;;;;;;6364574;22;20026;-82
2023/12/21 07:04:58;;;;;;;48.33;5.25;;;;;;;;;;6364972;22;20359;-81
2023/12/21 07:07:25;;;;;;;91.38;7.93;;;;;;;;;;6364866;22;20022;-81
2023/12/21 07:09:51;;;;;;;110.15;9.30;;;;;;;;;;6364484;22;20076;-81
2023/12/21 07:12:20;;;;;;;50.28;5.43;;;;;;;;;;6364323;22;20014;-81
2023/12/21 07:14:49;;;;;;;100.97;8.50;;;;;;;;;;6364423;22;20042;-82
2023/12/21 07:17:16;;;;;;;94.53;8.68;;;;;;;;;;6363773;22;20022;-82
2023/12/21 07:19:42;;;;;;;39.92;5.25;;;;;;;;;;6365485;22;20383;-81
2023/12/21 07:22:09;;;;;;;57.45;6.22;;;;;;;;;;6364367;22;20654;-81
2023/12/21 07:24:36;;;;;;;97.80;8.23;;;;;;;;;;6337191;22;20364;-81
2023/12/21 07:27:03;;;;;;;30.23;4.43;;;;;;;;;;6365440;22;20025;-81
2023/12/21 07:29:30;;;;;;;58.25;5.90;;;;;;;;;;6364540;22;20030;-82
2023/12/21 07:31:56;;;;;;;113.55;9.43;;;;;;;;;;6363615;22;20168;-81
2023/12/21 07:34:23;;;;;;;181.75;13.10;;;;;;;;;;6364849;22;20038;-81
2023/12/21 07:36:50;;;;;;;76.60;7.43;;;;;;;;;;6364537;22;20090;-81
2023/12/21 07:39:16;;;;;;;107.72;10.20;;;;;;;;;;6364812;22;20034;-82
2023/12/21 07:41:45;;;;;;;39.95;6.88;;;;;;;;;;6363847;22;20071;-82
2023/12/21 07:44:12;;;;;;;120.63;13.95;;;;;;;;;;6364049;22;20437;-81
2023/12/21 07:46:38;;;;;;;116.68;12.07;;;;;;;;;;6364294;22;20079;-82
2023/12/21 07:49:05;;;;;;;28.75;7.00;;;;;;;;;;6364940;22;20022;-81
2023/12/21 07:51:32;;;;;;;54.78;7.50;;;;;;;;;;6364196;22;20326;-81
2023/12/21 07:53:58;;;;;;;126.10;11.43;;;;;;;;;;6364923;22;20145;-81
2023/12/21 07:56:25;;;;;;;54.42;8.63;;;;;;;;;;6366027;22;20383;-81
2023/12/21 07:58:51;;;;;;;88.63;7.95;;;;;;;;;;6365555;22;20014;-81
2023/12/21 08:01:18;;;;;;;80.38;8.35;;;;;;;;;;6364198;22;20338;-82
2023/12/21 08:03:45;;;;;;;60.33;6.70;;;;;;;;;;6365672;22;20030;-82
2023/12/21 08:06:21;;;;;;;95.03;8.27;;;;;;;;;;6364236;22;20017;-81
2023/12/21 08:08:48;;;;;;;109.75;10.55;;;;;;;;;;6364554;22;20098;-81
2023/12/21 08:11:23;;;;;;;84.18;9.55;;;;;;;;;;6363902;22;20450;-81
2023/12/21 08:13:51;;;;;;;110.78;16.88;;;;;;;;;;6364117;22;20403;-81
2023/12/21 08:16:18;;;;;;;78.30;12.10;;;;;;;;;;6363920;22;20049;-81
2023/12/21 08:18:44;;;;;;;117.38;17.45;;;;;;;;;;6364229;22;20018;-81
2023/12/21 08:21:11;;;;;;;77.68;16.67;;;;;;;;;;6336834;22;20014;-81
2023/12/21 08:23:38;;;;;;;57.83;11.45;;;;;;;;;;6365113;22;20018;-81
2023/12/21 08:26:05;;;;;;;89.05;9.27;;;;;;;;;;6364473;22;20023;-82
2023/12/21 08:28:32;;;;;;;74.60;7.47;;;;;;;;;;6364757;22;20022;-82
2023/12/21 08:31:00;;;;;;;52.65;6.38;;;;;;;;;;6365736;22;20014;-81
2023/12/21 08:33:26;;;;;;;33.83;4.97;;;;;;;;;;6364192;22;20018;-82
2023/12/21 08:35:53;;;;;;;76.65;7.07;;;;;;;;;;6363594;22;20021;-83
2023/12/21 08:38:20;;;;;;;70.22;6.68;;;;;;;;;;6365192;22;20079;-83
2023/12/21 08:40:47;;;;;;;54.38;5.70;;;;;;;;;;6365040;22;20071;-83
2023/12/21 08:43:14;;;;;;;64.00;7.00;;;;;;;;;;6363961;22;20083;-82
2023/12/21 08:45:41;;;;;;;32.92;4.88;;;;;;;;;;6335934;22;20109;-82
2023/12/21 08:48:07;;;;;;;107.10;9.40;;;;;;;;;;6363662;22;20040;-84
2023/12/21 08:50:34;;;;;;;68.10;7.10;;;;;;;;;;6364499;22;20022;-82
2023/12/21 08:53:02;;;;;;;49.97;7.43;;;;;;;;;;6365150;22;20022;-82
2023/12/21 08:55:29;;;;;;;46.30;6.50;;;;;;;;;;6364307;22;20056;-82
2023/12/21 08:57:57;;;;;;;74.03;10.15;;;;;;;;;;6336402;22;20025;-82
2023/12/21 09:00:24;;;;;;;53.67;7.10;;;;;;;;;;6364579;22;20025;-83
2023/12/21 09:02:51;;;;;;;51.55;5.88;;;;;;;;;;6363761;22;20450;-84
2023/12/21 09:05:23;;;;;;;106.00;11.20;;;;;;;;;;6364343;22;20397;-84
2023/12/21 09:07:50;;;;;;;52.45;7.57;;;;;;;;;;6364003;22;20018;-88
2023/12/21 09:10:17;;;;;;;84.35;8.52;;;;;;;;;;6364800;22;20086;-81
2023/12/21 09:12:44;;;;;;;108.63;8.43;;;;;;;;;;6364560;22;20031;-83
2023/12/21 09:15:12;;;;;;;38.00;4.38;;;;;;;;;;6336670;22;20018;-82
2023/12/21 09:17:38;;;;;;;50.85;5.63;;;;;;;;;;6336129;22;20036;-82
2023/12/21 09:20:08;;;;;;;110.70;9.32;;;;;;;;;;6363697;22;20022;-82
2023/12/21 09:22:36;;;;;;;42.17;6.47;;;;;;;;;;6363875;22;20022;-82
2023/12/21 09:25:04;;;;;;;38.97;3.80;;;;;;;;;;6364663;22;20018;-81
2023/12/21 09:27:32;;;;;;;85.68;6.85;;;;;;;;;;6363799;22;20022;-82
2023/12/21 09:29:58;;;;;;;65.45;5.35;;;;;;;;;;6364601;22;20040;-82
2023/12/21 09:32:25;;;;;;;51.70;6.72;;;;;;;;;;6363611;22;20644;-83
2023/12/21 09:34:52;;;;;;;105.85;11.15;;;;;;;;;;6335380;22;20453;-82
2023/12/21 09:37:19;;;;;;;95.97;10.73;;;;;;;;;;6335567;22;20023;-81
2023/12/21 09:39:46;;;;;;;77.57;6.80;;;;;;;;;;6363724;22;20441;-82
2023/12/21 09:42:14;;;;;;;113.05;8.27;;;;;;;;;;6363297;22;20353;-81
2023/12/21 09:44:42;;;;;;;66.13;5.65;;;;;;;;;;6363819;22;20050;-81
2023/12/21 09:47:11;;;;;;;50.33;4.68;;;;;;;;;;6335536;22;20071;-81
2023/12/21 09:49:38;;;;;;;46.20;4.90;;;;;;;;;;6363976;22;20045;-81
2023/12/21 09:52:07;;;;;;;70.95;6.45;;;;;;;;;;6363847;22;20046;-82
2023/12/21 09:54:38;;;;;;;41.60;4.20;;;;;;;;;;6363957;22;20349;-81
2023/12/21 09:57:07;;;;;;;59.72;6.32;;;;;;;;;;6364361;22;20457;-81
2023/12/21 09:59:34;;;;;;;45.05;6.63;;;;;;;;;;6365886;22;20022;-82
2023/12/21 10:02:00;;;;;;;70.40;6.55;;;;;;;;;;6336268;22;20087;-82
2023/12/21 10:04:28;;;;;;;95.38;7.65;;;;;;;;;;6337885;22;21001;-82
2023/12/21 10:06:54;;;;;;;33.30;3.78;;;;;;;;;;6366453;22;20022;-82
2023/12/21 10:09:21;;;;;;;72.43;6.53;;;;;;;;;;6365552;22;20049;-83
2023/12/21 10:11:47;;;;;;;95.30;8.60;;;;;;;;;;6365305;22;20018;-82
2023/12/21 10:14:14;;;;;;;68.00;5.70;;;;;;;;;;6366241;22;20043;-83
2023/12/21 10:16:41;;;;;;;88.65;7.30;;;;;;;;;;6364736;22;20023;-82
2023/12/21 10:19:11;;;;;;;66.18;6.07;;;;;;;;;;6364607;22;20423;-83
2023/12/21 10:21:39;;;;;;;26.95;4.82;;;;;;;;;;6365505;22;20029;-83
2023/12/21 10:24:06;;;;;;;81.93;7.03;;;;;;;;;;6365770;22;20026;-82
2023/12/21 10:26:53;;;;;;;88.20;7.03;;;;;;;;;;6366287;22;20025;-83
2023/12/21 10:29:20;;;;;;;107.40;9.20;;;;;;;;;;6365446;22;20683;-83
2023/12/21 10:31:47;;;;;;;121.85;9.02;;;;;;;;;;6364481;22;20520;-83
2023/12/21 10:34:17;;;;;;;62.42;5.53;;;;;;;;;;6364593;22;20018;-83
2023/12/21 10:36:44;;;;;;;91.38;6.93;;;;;;;;;;6364776;22;20022;-83
2023/12/21 10:39:12;;;;;;;89.38;7.50;;;;;;;;;;6365640;22;20057;-83
2023/12/21 10:41:45;;;;;;;31.98;4.22;;;;;;;;;;6365906;22;20018;-83
2023/12/21 10:44:12;;;;;;;104.13;8.48;;;;;;;;;;6364824;22;20419;-83
2023/12/21 10:46:41;;;;;;;73.80;6.28;;;;;;;;;;6337144;22;20022;-83
2023/12/21 10:49:11;;;;;;;38.67;5.63;;;;;;;;;;6365580;22;20014;-83
2023/12/21 10:51:40;;;;;;;83.88;6.63;;;;;;;;;;6365782;22;20026;-83
2023/12/21 10:54:10;;;;;;;75.20;6.95;;;;;;;;;;6365647;22;20020;-84
2023/12/21 10:56:44;;;;;;;77.72;6.65;;;;;;;;;;6337621;22;20041;-83
2023/12/21 10:59:19;;;;;;;57.47;5.93;;;;;;;;;;6365182;22;20617;-83
2023/12/21 11:01:46;;;;;;;119.60;8.57;;;;;;;;;;6365479;22;20018;-86
2023/12/21 11:04:14;;;;;;;107.40;8.57;;;;;;;;;;6365311;22;20040;-82
2023/12/21 11:06:41;;;;;;;78.35;6.93;;;;;;;;;;6365168;22;20014;-83
2023/12/21 11:09:09;;;;;;;40.40;5.15;;;;;;;;;;6337620;22;20424;-83
2023/12/21 11:11:36;;;;;;;70.05;6.35;;;;;;;;;;6337315;22;20517;-83
2023/12/21 11:14:03;;;;;;;74.78;7.15;;;;;;;;;;6365390;22;20059;-83
2023/12/21 11:16:36;;;;;;;80.00;7.05;;;;;;;;;;6337241;22;20014;-83
2023/12/21 11:19:04;;;;;;;82.60;9.10;;;;;;;;;;6365560;22;20044;-83
2023/12/21 11:21:33;;;;;;;64.00;5.68;;;;;;;;;;6365606;22;20476;-83
2023/12/21 11:24:00;;;;;;;46.58;5.30;;;;;;;;;;6364650;22;20014;-83
2023/12/21 11:26:27;;;;;;;96.68;7.95;;;;;;;;;;6365133;22;20022;-82
2023/12/21 11:29:04;;;;;;;52.97;6.38;;;;;;;;;;6337161;22;20082;-83
2023/12/21 11:31:40;;;;;;;57.22;5.18;;;;;;;;;;6337774;22;20029;-83
2023/12/21 11:34:10;;;;;;;68.35;6.38;;;;;;;;;;6364510;22;20014;-82
2023/12/21 11:36:37;;;;;;;61.97;7.18;;;;;;;;;;6364895;22;20018;-83
2023/12/21 11:39:07;;;;;;;85.90;8.02;;;;;;;;;;6365072;22;20014;-83
2023/12/21 11:41:34;;;;;;;95.90;8.75;;;;;;;;;;6365360;22;20025;-82
2023/12/21 11:44:01;;;;;;;64.57;6.47;;;;;;;;;;6337298;22;20014;-85
2023/12/21 11:46:27;;;;;;;79.30;6.40;;;;;;;;;;6364481;22;20509;-84
2023/12/21 11:48:54;;;;;;;51.17;5.00;;;;;;;;;;6364756;22;20018;-82
2023/12/21 11:51:20;;;;;;;117.70;9.00;;;;;;;;;;6364726;22;20125;-83
2023/12/21 11:53:47;;;;;;;87.45;7.07;;;;;;;;;;6337236;22;20484;-83
2023/12/21 11:56:14;;;;;;;66.72;6.55;;;;;;;;;;6364649;22;20018;-82
2023/12/21 11:58:41;;;;;;;57.17;5.38;;;;;;;;;;6336270;22;20026;-82
2023/12/21 12:01:20;;;;;;;110.05;8.25;;;;;;;;;;6334920;22;20350;-82
2023/12/21 12:03:46;;;;;;;55.40;5.32;;;;;;;;;;6363512;22;20015;-82
2023/12/21 12:06:14;;;;;;;89.38;7.25;;;;;;;;;;6364562;22;20026;-82
2023/12/21 12:08:41;;;;;;;54.70;4.85;;;;;;;;;;6365156;22;20134;-83
2023/12/21 12:11:07;;;;;;;43.28;4.78;;;;;;;;;;6337879;22;20523;-83
2023/12/21 12:13:34;;;;;;;96.90;7.70;;;;;;;;;;6365052;22;20074;-84
2023/12/21 12:16:00;;;;;;;63.65;5.85;;;;;;;;;;6365228;22;20029;-84
2023/12/21 12:18:27;;;;;;;38.22;4.78;;;;;;;;;;6336802;22;20019;-83
2023/12/21 12:21:00;;;;;;;98.38;8.18;;;;;;;;;;6336258;22;20018;-84
2023/12/21 12:23:27;;;;;;;69.10;6.28;;;;;;;;;;6364450;22;20022;-84
2023/12/21 12:25:54;;;;;;;69.05;6.20;;;;;;;;;;6364388;22;20083;-84
2023/12/21 12:28:23;;;;;;;74.47;7.07;;;;;;;;;;6337330;22;20108;-83
2023/12/21 12:30:50;;;;;;;73.88;6.53;;;;;;;;;;6336429;22;20029;-83
2023/12/21 12:33:17;;;;;;;62.92;5.72;;;;;;;;;;6363779;22;20417;-84
2023/12/21 12:35:48;;;;;;;91.35;7.80;;;;;;;;;;6363965;22;20018;-84
2023/12/21 12:38:16;;;;;;;43.80;4.65;;;;;;;;;;6365154;22;20034;-83
2023/12/21 12:40:45;;;;;;;86.70;7.35;;;;;;;;;;6364091;22;20022;-83
2023/12/21 12:43:12;;;;;;;58.67;5.57;;;;;;;;;;6363774;22;20093;-84
2023/12/21 12:45:41;;;;;;;50.00;4.90;;;;;;;;;;6364576;22;20019;-84
2023/12/21 12:48:09;;;;;;;71.10;6.07;;;;;;;;;;6363476;22;20738;-84
2023/12/21 12:50:37;;;;;;;61.90;5.30;;;;;;;;;;6337383;22;20029;-84
2023/12/21 12:53:07;;;;;;;32.42;4.53;;;;;;;;;;6365774;22;20010;-85
2023/12/21 12:55:35;;;;;;;49.70;4.72;;;;;;;;;;6337082;22;20520;-85
2023/12/21 12:58:05;;;;;;;82.22;7.45;;;;;;;;;;6337840;22;20357;-84
2023/12/21 13:00:32;;;;;;;34.83;4.18;;;;;;;;;;6365065;22;20022;-84
2023/12/21 13:02:59;;;;;;;46.83;4.93;;;;;;;;;;6336565;22;20465;-85
2023/12/21 13:05:25;;;;;;;63.45;6.68;;;;;;;;;;6336652;22;20096;-85
2023/12/21 13:07:52;;;;;;;47.35;5.95;;;;;;;;;;6365343;22;20434;-85
2023/12/21 13:10:19;;;;;;;51.75;4.90;;;;;;;;;;6336188;22;20029;-84
2023/12/21 13:12:46;;;;;;;125.57;9.40;;;;;;;;;;6364731;22;20021;-85
2023/12/21 13:15:12;;;;;;;40.38;5.22;;;;;;;;;;6339032;22;20465;-84
2023/12/21 13:17:39;;;;;;;38.85;4.80;;;;;;;;;;6342481;22;20029;-85
2023/12/21 13:20:09;;;;;;;109.93;8.15;;;;;;;;;;6372210;22;20404;-85
2023/12/21 13:22:36;;;;;;;38.17;6.40;;;;;;;;;;6344327;22;20018;-85
2023/12/21 13:25:03;;;;;;;81.40;7.80;;;;;;;;;;6372813;22;20014;-85
2023/12/21 13:27:30;;;;;;;103.47;9.40;;;;;;;;;;6370981;22;20018;-85
2023/12/21 13:29:56;;;;;;;74.50;7.32;;;;;;;;;;6341020;22;20044;-84
2023/12/21 13:32:24;;;;;;;65.45;6.38;;;;;;;;;;6373592;22;20013;-84
2023/12/21 13:34:51;;;;;;;98.35;8.20;;;;;;;;;;6373452;22;20392;-84
2023/12/21 13:37:17;;;;;;;65.32;6.47;;;;;;;;;;6374369;22;20018;-85
2023/12/21 13:39:49;;;;;;;51.53;5.47;;;;;;;;;;6344724;22;20038;-85
2023/12/21 13:42:18;;;;;;;38.72;5.07;;;;;;;;;;6371056;22;20101;-84
2023/12/21 13:44:45;;;;;;;82.78;6.85;;;;;;;;;;6371543;22;20463;-85
2023/12/21 13:47:14;;;;;;;49.20;5.18;;;;;;;;;;6368947;22;20398;-87
2023/12/21 13:49:43;;;;;;;36.55;4.88;;;;;;;;;;6341977;22;20028;-85
2023/12/21 13:52:09;;;;;;;73.78;6.40;;;;;;;;;;6370731;22;20015;-85
2023/12/21 13:54:38;;;;;;;54.75;5.80;;;;;;;;;;6343193;22;20065;-84
2023/12/21 13:57:04;;;;;;;21.77;3.88;;;;;;;;;;6343171;22;20395;-84
2023/12/21 13:59:40;;;;;;;57.72;5.70;;;;;;;;;;6369993;22;20021;-85
2023/12/21 14:02:07;;;;;;;115.18;10.50;;;;;;;;;;6368482;22;20040;-85
2023/12/21 14:04:35;;;;;;;62.08;5.90;;;;;;;;;;6370215;22;20033;-84
2023/12/21 14:07:02;;;;;;;20.02;3.45;;;;;;;;;;6367586;22;20042;-88
2023/12/21 14:09:29;;;;;;;888.60;81.75;;;;;;;;;;6239417;22;20040;-85
2023/12/21 14:11:56;;;;;;;823.60;76.93;;;;;;;;;;6210373;22;20124;-86
2023/12/21 14:14:22;;;;;;;886.35;84.15;;;;;;;;;;6200432;22;20092;-83
2023/12/21 14:16:49;;;;;;;959.20;90.15;;;;;;;;;;6221089;22;20140;-82
2023/12/21 14:19:15;;;;;;;920.45;87.40;;;;;;;;;;6221006;22;20014;-83
2023/12/21 14:21:42;;;;;;;879.47;83.07;;;;;;;;;;6220453;22;20025;-84
2023/12/21 14:24:09;;;;;;;911.90;85.05;;;;;;;;;;6226565;22;20010;-83
2023/12/21 14:26:35;;;;;;;44.30;5.10;;;;;;;;;;6234729;22;20453;-85